Time;durP1;ratioP1;P1;durP2;ratioP2;P2;SDS_P1;SDS_P2;PMS_P1;PMS_P2;Temp;Humidity;BMP_temperature;BMP_pressure;BME280_temperature;BME280_humidity;BME280_pressure;Samples;Min_cycle;Max_cycle;Signal;HPM_P1;HPM_P2
2022/04/03 00:00:14;;;;;;;12.77;5.07;;;;;;;-148.16;100.00;58328.31;5076536;28;20105;-50
2022/04/03 00:03:08;;;;;;;13.75;5.00;;;;;;;-148.16;100.00;58328.31;5091387;28;20052;-51
2022/04/03 00:05:52;;;;;;;13.65;4.80;;;;;;;-148.16;100.00;58328.31;5091109;28;20101;-49
2022/04/03 00:08:37;;;;;;;15.48;4.93;;;;;;;-148.16;100.00;58328.31;5091357;28;20471;-47
2022/04/03 00:11:22;;;;;;;17.75;5.00;;;;;;;-148.16;100.00;58328.31;5092240;28;20048;-50
2022/04/03 00:14:07;;;;;;;11.45;4.97;;;;;;;-148.16;100.00;58328.31;5071625;28;20044;-49
2022/04/03 00:16:53;;;;;;;15.93;5.32;;;;;;;-148.16;100.00;58328.31;5071612;28;20132;-49
2022/04/03 00:19:38;;;;;;;12.88;4.57;;;;;;;-148.16;100.00;58328.31;5071253;28;20492;-49
2022/04/03 00:22:24;;;;;;;12.40;4.28;;;;;;;-148.16;100.00;58328.31;5072288;28;20116;-49
2022/04/03 00:25:11;;;;;;;15.35;4.85;;;;;;;-148.16;100.00;58328.31;5070342;28;20047;-49
2022/04/03 00:27:56;;;;;;;22.52;4.35;;;;;;;-148.16;100.00;58328.31;5071731;28;20110;-48
2022/04/03 00:30:41;;;;;;;12.27;4.07;;;;;;;-148.16;100.00;58328.31;5070444;28;20057;-49
2022/04/03 00:33:26;;;;;;;18.45;4.68;;;;;;;-148.16;100.00;58328.31;5072894;28;20036;-51
2022/04/03 00:36:11;;;;;;;13.93;4.70;;;;;;;-148.16;100.00;58328.31;5073601;28;20230;-47
2022/04/03 00:38:56;;;;;;;12.55;4.30;;;;;;;-148.16;100.00;58328.31;5074818;28;20045;-52
2022/04/03 00:41:40;;;;;;;12.05;4.65;;;;;;;-148.16;100.00;58328.31;5073815;28;20047;-50
2022/04/03 00:44:26;;;;;;;12.10;4.35;;;;;;;-148.16;100.00;58328.31;5075175;28;20049;-51
2022/04/03 00:47:12;;;;;;;10.90;4.97;;;;;;;-148.16;100.00;58328.31;5074934;28;20465;-49
2022/04/03 00:49:57;;;;;;;15.05;4.90;;;;;;;-148.16;100.00;58328.31;5074187;28;20052;-49
2022/04/03 00:52:41;;;;;;;9.48;4.45;;;;;;;-148.16;100.00;58328.31;5074213;28;20497;-52
2022/04/03 00:55:25;;;;;;;12.80;4.05;;;;;;;-148.16;100.00;58328.31;5075064;28;20502;-53
2022/04/03 00:58:11;;;;;;;9.57;3.95;;;;;;;-148.16;100.00;58328.31;5074833;28;20381;-50
2022/04/03 01:00:56;;;;;;;11.25;3.60;;;;;;;-148.16;100.00;58328.31;5074522;28;20044;-49
2022/04/03 01:03:41;;;;;;;15.98;3.83;;;;;;;-148.16;100.00;58328.31;5073876;28;20051;-47
2022/04/03 01:06:26;;;;;;;11.50;4.25;;;;;;;-148.16;100.00;58328.31;5074338;28;20052;-51
2022/04/03 01:09:12;;;;;;;15.98;4.20;;;;;;;-148.16;100.00;58328.31;5086372;28;20072;-53
2022/04/03 01:11:57;;;;;;;13.13;3.60;;;;;;;-148.16;100.00;58328.31;5093997;28;20071;-54
2022/04/03 01:14:43;;;;;;;12.38;4.25;;;;;;;-148.16;100.00;58328.31;5092983;28;20480;-52
2022/04/03 01:17:28;;;;;;;13.63;3.78;;;;;;;-148.16;100.00;58328.31;5093141;28;20483;-47
2022/04/03 01:20:13;;;;;;;10.57;3.78;;;;;;;-148.16;100.00;58328.31;5093398;28;20054;-50
2022/04/03 01:22:58;;;;;;;10.63;3.70;;;;;;;-148.16;100.00;58328.31;5093858;28;20065;-51
2022/04/03 01:25:43;;;;;;;13.40;4.00;;;;;;;-148.16;100.00;58328.31;5078315;28;20141;-48
2022/04/03 01:28:28;;;;;;;11.55;3.67;;;;;;;-148.16;100.00;58328.31;5093866;28;20085;-51
2022/04/03 01:31:13;;;;;;;12.50;4.10;;;;;;;-148.16;100.00;58328.31;5093555;28;20071;-51
2022/04/03 01:33:59;;;;;;;8.50;3.58;;;;;;;-148.16;100.00;58328.31;5092570;28;20048;-50
2022/04/03 01:36:44;;;;;;;11.35;4.07;;;;;;;-148.16;100.00;58328.31;5093527;28;20169;-51
2022/04/03 01:39:29;;;;;;;10.60;3.83;;;;;;;-148.16;100.00;58328.31;5092716;28;20077;-50
2022/04/03 01:42:14;;;;;;;12.95;3.92;;;;;;;-148.16;100.00;58328.31;5093418;28;20051;-51
2022/04/03 01:44:59;;;;;;;12.18;3.97;;;;;;;-148.16;100.00;58328.31;5092697;28;20071;-53
2022/04/03 01:47:43;;;;;;;11.70;3.72;;;;;;;-148.16;100.00;58328.31;5093437;28;20098;-54
2022/04/03 01:50:28;;;;;;;15.65;3.78;;;;;;;-148.16;100.00;58328.31;5093869;28;20098;-50
2022/04/03 01:53:12;;;;;;;9.75;3.30;;;;;;;-148.16;100.00;58328.31;5093766;28;20415;-50
2022/04/03 01:56:03;;;;;;;13.35;3.20;;;;;;;-148.16;100.00;58328.31;5093081;28;20044;-50
2022/04/03 01:58:47;;;;;;;7.95;3.40;;;;;;;-148.16;100.00;58328.31;5093089;28;20152;-50
2022/04/03 02:01:35;;;;;;;10.57;3.60;;;;;;;-148.16;100.00;58328.31;5092397;28;20549;-51
2022/04/03 02:04:19;;;;;;;9.35;3.00;;;;;;;-148.16;100.00;58328.31;5092669;28;20296;-49
2022/04/03 02:07:04;;;;;;;11.23;3.20;;;;;;;-148.16;100.00;58328.31;5093009;28;20047;-50
2022/04/03 02:09:49;;;;;;;8.60;3.05;;;;;;;-148.16;100.00;58328.31;5092844;28;20044;-49
2022/04/03 02:12:34;;;;;;;13.80;3.20;;;;;;;-148.16;100.00;58328.31;5093852;28;20044;-50
2022/04/03 02:15:18;;;;;;;17.88;2.75;;;;;;;-148.16;100.00;58328.31;5078677;28;20082;-50
2022/04/03 02:18:04;;;;;;;10.35;3.13;;;;;;;-148.16;100.00;58328.31;5093583;28;20050;-50
2022/04/03 02:20:49;;;;;;;10.20;2.90;;;;;;;-148.16;100.00;58328.31;5093558;28;20051;-50
2022/04/03 02:23:33;;;;;;;8.05;3.03;;;;;;;-148.16;100.00;58328.31;5093687;28;20040;-50
2022/04/03 02:26:18;;;;;;;13.57;2.88;;;;;;;-148.16;100.00;58328.31;5093783;28;20056;-51
2022/04/03 02:29:04;;;;;;;6.95;2.70;;;;;;;-148.16;100.00;58328.31;5093283;28;20054;-52
2022/04/03 02:31:48;;;;;;;6.32;2.72;;;;;;;-148.16;100.00;58328.31;5092600;28;20051;-48
2022/04/03 02:34:33;;;;;;;9.73;2.85;;;;;;;-148.16;100.00;58328.31;5091652;28;20051;-50
2022/04/03 02:37:18;;;;;;;8.85;2.90;;;;;;;-148.16;100.00;58328.31;5092665;28;20116;-46
2022/04/03 02:40:05;;;;;;;10.70;2.35;;;;;;;-148.16;100.00;58328.31;5092162;28;20112;-48
2022/04/03 02:42:52;;;;;;;11.63;2.67;;;;;;;-148.16;100.00;58328.31;5093331;28;20040;-53
2022/04/03 02:45:37;;;;;;;8.13;2.80;;;;;;;-148.16;100.00;58328.31;5093162;28;20393;-50
2022/04/03 02:48:22;;;;;;;12.85;3.28;;;;;;;-148.16;100.00;58328.31;5090286;28;20119;-52
2022/04/03 02:51:06;;;;;;;8.25;2.80;;;;;;;-148.16;100.00;58328.31;5093445;28;20040;-48
2022/04/03 02:53:51;;;;;;;7.20;3.25;;;;;;;-148.16;100.00;58328.31;5092989;28;20040;-50
2022/04/03 02:56:36;;;;;;;10.48;2.60;;;;;;;-148.16;100.00;58328.31;5092957;28;20089;-52
2022/04/03 02:59:20;;;;;;;12.02;2.65;;;;;;;-148.16;100.00;58328.31;5091228;28;20421;-52
2022/04/03 03:02:05;;;;;;;10.07;2.03;;;;;;;-148.16;100.00;58328.31;5092128;28;20540;-52
2022/04/03 03:04:50;;;;;;;9.48;2.30;;;;;;;-148.16;100.00;58328.31;5092537;28;20458;-53
2022/04/03 03:07:38;;;;;;;6.47;2.03;;;;;;;-148.16;100.00;58328.31;5090983;28;20036;-49
2022/04/03 03:10:25;;;;;;;12.77;2.22;;;;;;;-148.16;100.00;58328.31;5091536;28;20127;-52
2022/04/03 03:13:09;;;;;;;5.10;1.88;;;;;;;-148.16;100.00;58328.31;5091719;28;20051;-51
2022/04/03 03:15:54;;;;;;;4.65;1.85;;;;;;;-148.16;100.00;58328.31;5091658;28;20501;-52
2022/04/03 03:18:40;;;;;;;8.88;1.80;;;;;;;-148.16;100.00;58328.31;5091358;28;20044;-50
2022/04/03 03:21:24;;;;;;;7.65;1.75;;;;;;;-148.16;100.00;58328.31;5091217;28;20097;-48
2022/04/03 03:24:09;;;;;;;10.20;2.42;;;;;;;-148.16;100.00;58328.31;5092364;28;20434;-49
2022/04/03 03:26:53;;;;;;;11.57;1.80;;;;;;;-148.16;100.00;58328.31;5090916;28;20155;-50
2022/04/03 03:29:38;;;;;;;7.05;1.95;;;;;;;-148.16;100.00;58328.31;5091249;28;20142;-49
2022/04/03 03:32:24;;;;;;;6.82;2.10;;;;;;;-148.16;100.00;58328.31;5091307;28;20051;-48
2022/04/03 03:35:10;;;;;;;6.30;2.42;;;;;;;-148.16;100.00;58328.31;5092230;28;20086;-49
2022/04/03 03:37:55;;;;;;;7.82;2.10;;;;;;;-148.16;100.00;58328.31;5091540;28;20040;-52
2022/04/03 03:40:40;;;;;;;7.82;2.20;;;;;;;-148.16;100.00;58328.31;5091547;28;20040;-50
2022/04/03 03:43:25;;;;;;;8.68;2.00;;;;;;;-148.16;100.00;58328.31;5092395;28;20036;-48
2022/04/03 03:46:10;;;;;;;8.00;1.80;;;;;;;-148.16;100.00;58328.31;5091969;28;20036;-53
2022/04/03 03:48:55;;;;;;;11.38;2.10;;;;;;;-148.16;100.00;58328.31;5092273;28;20486;-53
2022/04/03 03:51:40;;;;;;;10.98;2.15;;;;;;;-148.16;100.00;58328.31;5092117;28;20047;-52
2022/04/03 03:54:25;;;;;;;5.40;1.92;;;;;;;-148.16;100.00;58328.31;5092119;28;20150;-49
2022/04/03 03:57:10;;;;;;;5.32;1.85;;;;;;;-148.16;100.00;58328.31;5092351;28;20043;-47
2022/04/03 03:59:55;;;;;;;7.55;1.85;;;;;;;-148.16;100.00;58328.31;5092052;28;20048;-54
2022/04/03 04:02:40;;;;;;;3.90;1.98;;;;;;;-148.16;100.00;58328.31;5091938;28;20399;-49
2022/04/03 04:05:25;;;;;;;7.97;2.10;;;;;;;-148.16;100.00;58328.31;5092093;28;20461;-51
2022/04/03 04:08:10;;;;;;;5.88;1.92;;;;;;;-148.16;100.00;58328.31;5093712;28;20086;-53
2022/04/03 04:10:55;;;;;;;7.97;1.67;;;;;;;-148.16;100.00;58328.31;5096430;28;20052;-52
2022/04/03 04:13:39;;;;;;;8.20;2.05;;;;;;;-148.16;100.00;58328.31;5096294;28;20418;-47
2022/04/03 04:16:24;;;;;;;6.45;2.22;;;;;;;-148.16;100.00;58328.31;5095792;28;20036;-49
2022/04/03 04:19:09;;;;;;;6.63;2.40;;;;;;;-148.16;100.00;58328.31;5096336;28;20044;-49
2022/04/03 04:21:54;;;;;;;6.47;2.33;;;;;;;-148.16;100.00;58328.31;5096231;28;20047;-51
2022/04/03 04:24:39;;;;;;;4.93;1.77;;;;;;;-148.16;100.00;58328.31;5096028;28;20055;-50
2022/04/03 04:27:23;;;;;;;4.78;1.95;;;;;;;-148.16;100.00;58328.31;5096140;28;20063;-49
2022/04/03 04:30:09;;;;;;;7.40;2.47;;;;;;;-148.16;100.00;58328.31;5095914;28;20047;-50
2022/04/03 04:32:53;;;;;;;5.88;2.20;;;;;;;-148.16;100.00;58328.31;5095923;28;20105;-50
2022/04/03 04:35:38;;;;;;;5.60;1.83;;;;;;;-148.16;100.00;58328.31;5095139;28;20075;-49
2022/04/03 04:38:22;;;;;;;4.03;1.73;;;;;;;-148.16;100.00;58328.31;5095819;28;20566;-52
2022/04/03 04:41:07;;;;;;;8.27;2.08;;;;;;;-148.16;100.00;58328.31;5095677;28;20040;-49
2022/04/03 04:43:52;;;;;;;10.13;2.40;;;;;;;-148.16;100.00;58328.31;5094739;28;20036;-50
2022/04/03 04:46:37;;;;;;;4.15;2.00;;;;;;;-148.16;100.00;58328.31;5095736;28;20097;-54
2022/04/03 04:49:21;;;;;;;5.70;2.17;;;;;;;-148.16;100.00;58328.31;5094592;28;20087;-48
2022/04/03 04:52:06;;;;;;;10.63;2.17;;;;;;;-148.16;100.00;58328.31;5095488;28;20071;-54
2022/04/03 04:54:51;;;;;;;6.75;2.20;;;;;;;-148.16;100.00;58328.31;5095673;28;20071;-53
2022/04/03 04:57:37;;;;;;;6.32;1.85;;;;;;;-148.16;100.00;58328.31;5093367;28;20044;-54
2022/04/03 05:00:27;;;;;;;5.65;1.70;;;;;;;-148.16;100.00;58328.31;5095578;28;20040;-51
2022/04/03 05:03:12;;;;;;;5.90;1.88;;;;;;;-148.16;100.00;58328.31;5094417;28;20127;-50
2022/04/03 05:05:57;;;;;;;3.40;1.70;;;;;;;-148.16;100.00;58328.31;5095446;28;20047;-54
2022/04/03 05:08:44;;;;;;;6.97;1.88;;;;;;;-148.16;100.00;58328.31;5095606;28;20036;-50
2022/04/03 05:11:29;;;;;;;4.95;2.15;;;;;;;-148.16;100.00;58328.31;5094784;28;20410;-48
2022/04/03 05:14:14;;;;;;;8.43;2.25;;;;;;;-148.16;100.00;58328.31;5094376;28;20390;-52
2022/04/03 05:16:59;;;;;;;10.93;2.17;;;;;;;-148.16;100.00;58328.31;5095220;28;20115;-49
2022/04/03 05:19:44;;;;;;;7.05;2.30;;;;;;;-148.16;100.00;58328.31;5095054;28;20074;-49
2022/04/03 05:22:28;;;;;;;5.45;2.25;;;;;;;-148.16;100.00;58328.31;5093929;28;20036;-50
2022/04/03 05:25:13;;;;;;;4.55;2.00;;;;;;;-148.16;100.00;58328.31;5094796;28;20133;-51
2022/04/03 05:27:58;;;;;;;7.93;2.03;;;;;;;-148.16;100.00;58328.31;5095446;28;20124;-52
2022/04/03 05:30:42;;;;;;;9.88;2.85;;;;;;;-148.16;100.00;58328.31;5094949;28;20548;-52
2022/04/03 05:33:27;;;;;;;4.53;1.90;;;;;;;-148.16;100.00;58328.31;5079679;28;20044;-48
2022/04/03 05:36:12;;;;;;;4.55;1.65;;;;;;;-148.16;100.00;58328.31;5092065;28;20105;-49
2022/04/03 05:38:57;;;;;;;8.43;2.10;;;;;;;-148.16;100.00;58328.31;5091006;28;20075;-52
2022/04/03 05:41:41;;;;;;;3.78;1.85;;;;;;;-148.16;100.00;58328.31;5092120;28;20044;-51
2022/04/03 05:44:26;;;;;;;6.25;2.00;;;;;;;-148.16;100.00;58328.31;5094477;28;20046;-46
2022/04/03 05:47:16;;;;;;;4.43;2.08;;;;;;;-148.16;100.00;58328.31;5095084;28;20036;-51
2022/04/03 05:50:00;;;;;;;5.68;2.30;;;;;;;-148.16;100.00;58328.31;5094513;28;20066;-49
2022/04/03 05:52:50;;;;;;;6.63;2.05;;;;;;;-148.16;100.00;58328.31;5094569;28;20043;-47
2022/04/03 05:55:35;;;;;;;5.22;1.83;;;;;;;-148.16;100.00;58328.31;5079002;28;20051;-51
2022/04/03 05:58:20;;;;;;;8.82;2.08;;;;;;;-148.16;100.00;58328.31;5093169;28;20058;-54
2022/04/03 06:01:04;;;;;;;4.85;2.28;;;;;;;-148.16;100.00;58328.31;5089190;28;20093;-51
2022/04/03 06:03:50;;;;;;;3.58;1.67;;;;;;;-148.16;100.00;58328.31;5093364;28;20047;-51
2022/04/03 06:06:34;;;;;;;7.53;1.98;;;;;;;-148.16;100.00;58328.31;5092950;28;20459;-49
2022/04/03 06:09:19;;;;;;;6.15;1.77;;;;;;;-148.16;100.00;58328.31;5093681;28;20036;-53
2022/04/03 06:12:04;;;;;;;5.22;2.03;;;;;;;-148.16;100.00;58328.31;5094252;28;20047;-47
2022/04/03 06:14:49;;;;;;;6.60;2.42;;;;;;;-148.16;100.00;58328.31;5093978;28;20360;-49
2022/04/03 06:17:33;;;;;;;7.95;2.28;;;;;;;-148.16;100.00;58328.31;5094073;28;20040;-49
2022/04/03 06:20:22;;;;;;;11.52;3.58;;;;;;;-148.16;100.00;58328.31;5093818;28;20064;-50
2022/04/03 06:23:14;;;;;;;8.95;1.98;;;;;;;-148.16;100.00;58328.31;5093910;28;20040;-49
2022/04/03 06:25:59;;;;;;;6.28;1.75;;;;;;;-148.16;100.00;58328.31;5092227;28;20105;-49
2022/04/03 06:28:44;;;;;;;4.45;2.28;;;;;;;-148.16;100.00;58328.31;5091677;28;20422;-50
2022/04/03 06:31:29;;;;;;;8.80;2.53;;;;;;;-148.16;100.00;58328.31;5090529;28;20059;-53
2022/04/03 06:34:14;;;;;;;5.43;2.58;;;;;;;-148.16;100.00;58328.31;5092596;28;20044;-51
2022/04/03 06:36:59;;;;;;;10.30;2.35;;;;;;;-148.16;100.00;58328.31;5092766;28;20048;-52
2022/04/03 06:39:43;;;;;;;6.70;2.58;;;;;;;-148.16;100.00;58328.31;5092564;28;20055;-52
2022/04/03 06:42:31;;;;;;;4.90;2.20;;;;;;;-148.16;100.00;58328.31;5091247;28;20052;-49
2022/04/03 06:45:17;;;;;;;7.18;2.40;;;;;;;-148.16;100.00;58328.31;5091134;28;20119;-53
2022/04/03 06:48:02;;;;;;;7.63;2.63;;;;;;;-148.16;100.00;58328.31;5092054;28;20036;-52
2022/04/03 06:50:47;;;;;;;5.55;2.22;;;;;;;-148.16;100.00;58328.31;5077634;28;20040;-46
2022/04/03 06:53:32;;;;;;;4.78;2.17;;;;;;;-148.16;100.00;58328.31;5077423;28;20090;-48
2022/04/03 06:56:16;;;;;;;8.00;2.25;;;;;;;-148.16;100.00;58328.31;5093143;28;20048;-53
2022/04/03 06:59:01;;;;;;;6.60;2.47;;;;;;;-148.16;100.00;58328.31;5092640;28;20046;-50
2022/04/03 07:01:46;;;;;;;6.20;2.55;;;;;;;-148.16;100.00;58328.31;5093088;28;20052;-52
2022/04/03 07:04:31;;;;;;;6.50;2.67;;;;;;;-148.16;100.00;58328.31;5077468;28;20077;-48
2022/04/03 07:07:23;;;;;;;5.63;2.22;;;;;;;-148.16;100.00;58328.31;5092044;28;20552;-52
2022/04/03 07:10:09;;;;;;;10.68;2.58;;;;;;;-148.16;100.00;58328.31;5092233;28;20441;-52
2022/04/03 07:12:55;;;;;;;5.07;2.35;;;;;;;-148.16;100.00;58328.31;5089715;28;20044;-55
2022/04/03 07:15:39;;;;;;;5.97;2.05;;;;;;;-148.16;100.00;58328.31;5091373;28;20047;-52
2022/04/03 07:18:24;;;;;;;8.40;2.60;;;;;;;-148.16;100.00;58328.31;5092753;28;20505;-50
2022/04/03 07:21:09;;;;;;;7.05;2.42;;;;;;;-148.16;100.00;58328.31;5091909;28;20134;-54
2022/04/03 07:23:53;;;;;;;4.57;1.98;;;;;;;-148.16;100.00;58328.31;5093048;28;20036;-53
2022/04/03 07:26:38;;;;;;;9.75;2.25;;;;;;;-148.16;100.00;58328.31;5091582;28;20059;-53
2022/04/03 07:29:24;;;;;;;4.78;2.38;;;;;;;-148.16;100.00;58328.31;5091633;28;20044;-54
2022/04/03 07:32:09;;;;;;;13.05;2.88;;;;;;;-148.16;100.00;58328.31;5093045;28;20044;-54
2022/04/03 07:34:54;;;;;;;5.95;2.20;;;;;;;-148.16;100.00;58328.31;5093009;28;20115;-53
2022/04/03 07:37:38;;;;;;;3.35;1.92;;;;;;;-148.16;100.00;58328.31;5092561;28;20094;-51
2022/04/03 07:40:23;;;;;;;7.45;2.03;;;;;;;-148.16;100.00;58328.31;5092729;28;20048;-54
2022/04/03 07:43:07;;;;;;;4.30;2.08;;;;;;;-148.16;100.00;58328.31;5091422;28;20050;-54
2022/04/03 07:45:53;;;;;;;6.13;2.58;;;;;;;-148.16;100.00;58328.31;5092649;28;20055;-54
2022/04/03 07:48:38;;;;;;;3.55;2.10;;;;;;;-148.16;100.00;58328.31;5092514;28;20453;-53
2022/04/03 07:51:23;;;;;;;3.67;1.95;;;;;;;-148.16;100.00;58328.31;5092388;28;20036;-52
2022/04/03 07:54:08;;;;;;;3.92;2.28;;;;;;;-148.16;100.00;58328.31;5092414;28;20064;-52
2022/04/03 07:56:53;;;;;;;6.07;2.28;;;;;;;-148.16;100.00;58328.31;5092420;28;20044;-50
2022/04/03 07:59:37;;;;;;;7.53;2.25;;;;;;;-148.16;100.00;58328.31;5091603;28;20392;-51
2022/04/03 08:02:22;;;;;;;6.43;2.20;;;;;;;-148.16;100.00;58328.31;5091231;28;20063;-53
2022/04/03 08:05:08;;;;;;;6.32;2.33;;;;;;;-148.16;100.00;58328.31;5092622;28;20044;-50
2022/04/03 08:07:55;;;;;;;9.88;2.38;;;;;;;-148.16;100.00;58328.31;5092683;28;20047;-52
2022/04/03 08:10:41;;;;;;;7.57;2.50;;;;;;;-148.16;100.00;58328.31;5092304;28;20040;-52
2022/04/03 08:13:25;;;;;;;6.13;2.38;;;;;;;-148.16;100.00;58328.31;5091982;28;20047;-53
2022/04/03 08:16:10;;;;;;;6.90;2.25;;;;;;;-148.16;100.00;58328.31;5092308;28;20040;-53
2022/04/03 08:18:57;;;;;;;6.00;2.15;;;;;;;-148.16;100.00;58328.31;5092203;28;20047;-54
2022/04/03 08:21:42;;;;;;;4.50;2.00;;;;;;;-148.16;100.00;58328.31;5091404;28;20040;-51
2022/04/03 08:24:26;;;;;;;5.10;2.13;;;;;;;-148.16;100.00;58328.31;5092129;28;20040;-54
2022/04/03 08:27:12;;;;;;;4.97;1.92;;;;;;;-148.16;100.00;58328.31;5090871;28;20097;-55
2022/04/03 08:29:57;;;;;;;3.90;2.35;;;;;;;-148.16;100.00;58328.31;5091970;28;20455;-53
2022/04/03 08:32:42;;;;;;;5.80;2.38;;;;;;;-148.16;100.00;58328.31;5091053;28;20051;-56
2022/04/03 08:35:28;;;;;;;3.20;1.80;;;;;;;-148.16;100.00;58328.31;5091973;28;20075;-54
2022/04/03 08:38:13;;;;;;;8.57;2.30;;;;;;;-148.16;100.00;58328.31;5092022;28;20079;-55
2022/04/03 08:41:00;;;;;;;4.60;1.90;;;;;;;-148.16;100.00;58328.31;5090600;28;20048;-53
2022/04/03 08:43:47;;;;;;;5.45;1.80;;;;;;;-148.16;100.00;58328.31;5091837;28;20491;-52
2022/04/03 08:46:32;;;;;;;4.95;2.20;;;;;;;-148.16;100.00;58328.31;5090858;28;20048;-56
2022/04/03 08:49:19;;;;;;;4.32;2.10;;;;;;;-148.16;100.00;58328.31;5090642;28;20052;-53
2022/04/03 08:52:05;;;;;;;4.80;1.92;;;;;;;-148.16;100.00;58328.31;5087860;28;20115;-56
2022/04/03 08:54:50;;;;;;;6.05;2.15;;;;;;;-148.16;100.00;58328.31;5076150;28;20036;-54
2022/04/03 08:57:35;;;;;;;4.00;2.20;;;;;;;-148.16;100.00;58328.31;5074517;28;20602;-50
2022/04/03 09:00:20;;;;;;;3.20;1.95;;;;;;;-148.16;100.00;58328.31;5089204;28;20491;-55
2022/04/03 09:03:06;;;;;;;6.43;2.00;;;;;;;-148.16;100.00;58328.31;5095932;28;20403;-53
2022/04/03 09:05:51;;;;;;;4.22;1.80;;;;;;;-148.16;100.00;58328.31;5080474;28;20501;-55
2022/04/03 09:08:38;;;;;;;10.07;1.95;;;;;;;-148.16;100.00;58328.31;5095290;28;20546;-52
2022/04/03 09:11:27;;;;;;;4.75;1.80;;;;;;;-148.16;100.00;58328.31;5080556;28;20403;-59
2022/04/03 09:14:14;;;;;;;3.38;1.70;;;;;;;-148.16;100.00;58328.31;5095657;28;20063;-54
2022/04/03 09:16:59;;;;;;;7.10;2.00;;;;;;;-148.16;100.00;58328.31;5094749;28;20048;-54
2022/04/03 09:19:44;;;;;;;3.70;1.80;;;;;;;-148.16;100.00;58328.31;5095728;28;20502;-52
2022/04/03 09:22:29;;;;;;;4.88;2.38;;;;;;;-148.16;100.00;58328.31;5095288;28;20048;-50
2022/04/03 09:25:22;;;;;;;4.47;1.52;;;;;;;-148.16;100.00;58328.31;5092142;28;20476;-53
2022/04/03 09:28:09;;;;;;;6.32;1.70;;;;;;;-148.16;100.00;58328.31;5093251;28;20344;-51
2022/04/03 09:30:54;;;;;;;3.47;1.90;;;;;;;-148.16;100.00;58328.31;5094338;28;20054;-58
2022/04/03 09:33:41;;;;;;;4.53;1.73;;;;;;;-148.16;100.00;58328.31;5093460;28;20044;-55
2022/04/03 09:36:32;;;;;;;7.70;2.58;;;;;;;-148.16;100.00;58328.31;5093405;28;20036;-58
2022/04/03 09:39:24;;;;;;;3.55;2.25;;;;;;;-148.16;100.00;58328.31;5093186;28;20036;-49
2022/04/03 09:42:11;;;;;;;3.92;2.03;;;;;;;-148.16;100.00;58328.31;5091911;28;20446;-57
2022/04/03 09:44:56;;;;;;;6.05;1.80;;;;;;;-148.16;100.00;58328.31;5077779;28;20044;-48
2022/04/03 09:47:40;;;;;;;2.83;1.60;;;;;;;-148.16;100.00;58328.31;5089840;28;20479;-55
2022/04/03 09:50:26;;;;;;;3.65;1.67;;;;;;;-148.16;100.00;58328.31;5091408;28;20560;-52
2022/04/03 09:53:12;;;;;;;3.90;1.85;;;;;;;-148.16;100.00;58328.31;5091152;28;20075;-52
2022/04/03 09:55:57;;;;;;;5.60;2.08;;;;;;;-148.16;100.00;58328.31;5089856;28;20048;-48
2022/04/03 09:59:00;;;;;;;4.85;1.92;;;;;;;-148.16;100.00;58328.31;5093821;28;20106;-51
2022/04/03 10:01:45;;;;;;;6.00;1.80;;;;;;;-148.16;100.00;58328.31;5093586;28;20048;-51
2022/04/03 10:04:33;;;;;;;6.22;1.95;;;;;;;-148.16;100.00;58328.31;5093508;28;20036;-49
2022/04/03 10:07:20;;;;;;;3.53;1.80;;;;;;;-148.16;100.00;58328.31;5093096;28;20055;-50
2022/04/03 10:10:06;;;;;;;3.80;1.85;;;;;;;-148.16;100.00;58328.31;5089631;28;20048;-53
2022/04/03 10:12:51;;;;;;;3.83;1.90;;;;;;;-148.16;100.00;58328.31;5093573;28;20047;-50
2022/04/03 10:15:36;;;;;;;4.50;2.03;;;;;;;-148.16;100.00;58328.31;5092560;28;20439;-52
2022/04/03 10:18:21;;;;;;;4.18;1.90;;;;;;;-148.16;100.00;58328.31;5093674;28;20094;-50
2022/04/03 10:21:27;;;;;;;3.97;1.92;;;;;;;-148.16;100.00;58328.31;5077475;28;20085;-52
2022/04/03 10:24:18;;;;;;;5.53;2.10;;;;;;;-148.16;100.00;58328.31;5087033;28;20051;-55
2022/04/03 10:27:06;;;;;;;4.32;2.15;;;;;;;-148.16;100.00;58328.31;5088222;28;20048;-58
2022/04/03 10:29:56;;;;;;;4.05;2.10;;;;;;;-148.16;100.00;58328.31;5091273;28;20051;-53
2022/04/03 10:32:41;;;;;;;5.30;1.92;;;;;;;-148.16;100.00;58328.31;5091901;28;20355;-59
2022/04/03 10:35:26;;;;;;;3.05;2.00;;;;;;;-148.16;100.00;58328.31;5090547;28;20048;-56
2022/04/03 10:38:11;;;;;;;7.20;2.25;;;;;;;-148.16;100.00;58328.31;5093491;28;20047;-56
2022/04/03 10:40:58;;;;;;;7.00;2.42;;;;;;;-148.16;100.00;58328.31;5074098;28;20399;-56
2022/04/03 10:43:43;;;;;;;4.18;2.17;;;;;;;-148.16;100.00;58328.31;5091237;28;20111;-56
2022/04/03 10:46:31;;;;;;;4.18;2.08;;;;;;;-148.16;100.00;58328.31;5092776;28;20044;-59
2022/04/03 10:49:16;;;;;;;4.72;2.20;;;;;;;-148.16;100.00;58328.31;5089588;28;20044;-57
2022/04/03 10:52:03;;;;;;;4.65;1.95;;;;;;;-148.16;100.00;58328.31;5091058;28;20036;-54
2022/04/03 10:54:52;;;;;;;2.75;1.50;;;;;;;-148.16;100.00;58328.31;5092404;28;20058;-56
2022/04/03 10:57:47;;;;;;;6.15;2.10;;;;;;;-148.16;100.00;58328.31;5092680;28;20051;-56
2022/04/03 11:00:35;;;;;;;3.63;1.88;;;;;;;-148.16;100.00;58328.31;5092778;28;20040;-54
2022/04/03 11:03:32;;;;;;;4.40;1.98;;;;;;;-148.16;100.00;58328.31;5091474;28;20058;-56
2022/04/03 11:06:25;;;;;;;3.25;2.00;;;;;;;-148.16;100.00;58328.31;5090897;28;20391;-59
2022/04/03 11:09:28;;;;;;;3.35;1.70;;;;;;;-148.16;100.00;58328.31;5092301;28;20040;-54
2022/04/03 11:12:13;;;;;;;2.50;1.70;;;;;;;-148.16;100.00;58328.31;5093880;28;20058;-57
2022/04/03 11:14:58;;;;;;;4.63;2.13;;;;;;;-148.16;100.00;58328.31;5071088;28;20078;-55
2022/04/03 11:17:44;;;;;;;3.97;2.03;;;;;;;-148.16;100.00;58328.31;5090851;28;20075;-51
2022/04/03 11:20:40;;;;;;;3.38;1.88;;;;;;;-148.16;100.00;58328.31;5092071;28;20040;-54
2022/04/03 11:23:25;;;;;;;3.45;1.77;;;;;;;-148.16;100.00;58328.31;5086698;28;20051;-60
2022/04/03 11:26:11;;;;;;;5.50;2.20;;;;;;;-148.16;100.00;58328.31;5090273;28;20048;-53
2022/04/03 11:28:56;;;;;;;4.38;2.28;;;;;;;-148.16;100.00;58328.31;5091264;28;20032;-56
2022/04/03 11:31:43;;;;;;;5.53;2.85;;;;;;;-148.16;100.00;58328.31;5090151;28;20048;-51
2022/04/03 11:34:31;;;;;;;5.05;2.60;;;;;;;-148.16;100.00;58328.31;5076869;28;20035;-53
2022/04/03 11:37:16;;;;;;;5.55;2.55;;;;;;;-148.16;100.00;58328.31;5092288;28;20120;-54
2022/04/03 11:40:04;;;;;;;4.78;2.53;;;;;;;-148.16;100.00;58328.31;5090981;28;20044;-50
2022/04/03 11:42:49;;;;;;;4.80;2.15;;;;;;;-148.16;100.00;58328.31;5091424;28;20062;-54
2022/04/03 11:45:33;;;;;;;5.70;3.05;;;;;;;-148.16;100.00;58328.31;5091846;28;20048;-55
2022/04/03 11:48:21;;;;;;;5.57;2.88;;;;;;;-148.16;100.00;58328.31;5090806;28;20055;-63
2022/04/03 11:51:11;;;;;;;6.70;2.42;;;;;;;-148.16;100.00;58328.31;5090234;28;20047;-53
2022/04/03 11:54:00;;;;;;;6.75;2.80;;;;;;;-148.16;100.00;58328.31;5090679;28;20036;-54
2022/04/03 11:56:45;;;;;;;4.00;2.15;;;;;;;-148.16;100.00;58328.31;5088008;28;20048;-56
2022/04/03 11:59:35;;;;;;;4.47;2.60;;;;;;;-148.16;100.00;58328.31;5090419;28;20048;-53
2022/04/03 12:02:20;;;;;;;5.35;2.72;;;;;;;-148.16;100.00;58328.31;5090536;28;20103;-59
2022/04/03 12:05:05;;;;;;;4.68;2.30;;;;;;;-148.16;100.00;58328.31;5091572;28;20406;-50
2022/04/03 12:07:50;;;;;;;6.07;2.75;;;;;;;-148.16;100.00;58328.31;5090941;28;20048;-56
2022/04/03 12:10:36;;;;;;;4.07;2.22;;;;;;;-148.16;100.00;58328.31;5091853;28;20055;-58
2022/04/03 12:13:20;;;;;;;7.47;2.42;;;;;;;-148.16;100.00;58328.31;5091863;28;20036;-61
2022/04/03 12:16:07;;;;;;;5.05;3.03;;;;;;;-148.16;100.00;58328.31;5076128;28;20055;-61
2022/04/03 12:19:09;;;;;;;6.03;2.60;;;;;;;-148.16;100.00;58328.31;5091830;28;20121;-60
2022/04/03 12:21:56;;;;;;;5.40;2.78;;;;;;;-148.16;100.00;58328.31;5089780;28;20044;-56
2022/04/03 12:24:43;;;;;;;6.50;2.80;;;;;;;-148.16;100.00;58328.31;5089389;28;20040;-59
2022/04/03 12:27:33;;;;;;;4.72;2.70;;;;;;;-148.16;100.00;58328.31;5081758;28;20036;-57
2022/04/03 12:30:18;;;;;;;6.20;3.15;;;;;;;-148.16;100.00;58328.31;5091185;28;20044;-57